Time;durP1;ratioP1;P1;durP2;ratioP2;P2;SDS_P1;SDS_P2;PMS_P1;PMS_P2;Temp;Humidity;BMP_temperature;BMP_pressure;BME280_temperature;BME280_humidity;BME280_pressure;Samples;Min_cycle;Max_cycle;Signal;HPM_P1;HPM_P2
2023/10/10 00:00:04;;;;;;;;;;;13.90;99.90;;;;;;5126158;28;19919;-75
2023/10/10 00:02:31;;;;;;;;;;;13.90;99.90;;;;;;5127816;28;19996;-74
2023/10/10 00:05:03;;;;;;;;;;;13.90;99.90;;;;;;5123813;28;19958;-73
2023/10/10 00:07:30;;;;;;;;;;;13.80;99.90;;;;;;5121006;28;20123;-74
2023/10/10 00:09:57;;;;;;;;;;;13.80;99.90;;;;;;5132829;28;19958;-74
2023/10/10 00:12:28;;;;;;;;;;;13.80;99.90;;;;;;5131865;27;19920;-74
2023/10/10 00:15:05;;;;;;;;;;;13.80;99.90;;;;;;5131927;27;19926;-74
2023/10/10 00:17:36;;;;;;;;;;;13.70;99.90;;;;;;5131661;27;19986;-73
2023/10/10 00:20:15;;;;;;;;;;;13.70;99.90;;;;;;5137330;27;19962;-74
2023/10/10 00:22:43;;;;;;;;;;;13.70;99.90;;;;;;5135094;27;20196;-74
2023/10/10 00:25:12;;;;;;;;;;;13.70;99.90;;;;;;5133786;27;20225;-74
2023/10/10 00:27:43;;;;;;;;;;;13.70;99.90;;;;;;5133946;27;20039;-74
2023/10/10 00:30:11;;;;;;;;;;;13.60;99.90;;;;;;5137003;27;19969;-74
2023/10/10 00:32:42;;;;;;;;;;;13.60;99.90;;;;;;5136267;27;19984;-74
2023/10/10 00:35:10;;;;;;;;;;;13.60;99.90;;;;;;5134066;27;20117;-74
2023/10/10 00:37:37;;;;;;;;;;;13.60;99.90;;;;;;5135383;27;19928;-74
2023/10/10 00:40:08;;;;;;;;;;;13.50;99.90;;;;;;5135302;27;19927;-73
2023/10/10 00:42:38;;;;;;;;;;;13.50;99.90;;;;;;5133630;27;19962;-73
2023/10/10 00:45:06;;;;;;;;;;;13.50;99.90;;;;;;5133240;27;19927;-74
2023/10/10 00:47:38;;;;;;;;;;;13.40;99.90;;;;;;5133652;27;19927;-72
2023/10/10 00:50:08;;;;;;;;;;;13.30;99.90;;;;;;5136030;27;20160;-71
2023/10/10 00:52:36;;;;;;;;;;;13.40;99.90;;;;;;5134326;27;19919;-73
2023/10/10 00:55:04;;;;;;;;;;;13.30;99.90;;;;;;5134871;27;19926;-74
2023/10/10 00:57:35;;;;;;;;;;;13.30;99.90;;;;;;5135495;27;19923;-73
2023/10/10 01:00:06;;;;;;;;;;;13.30;99.90;;;;;;5135436;27;19919;-73
2023/10/10 01:02:37;;;;;;;;;;;13.20;99.90;;;;;;5120832;28;19927;-73
2023/10/10 01:05:11;;;;;;;;;;;13.20;99.90;;;;;;5134862;27;19965;-73
2023/10/10 01:07:38;;;;;;;;;;;13.20;99.90;;;;;;5133396;27;19927;-74
2023/10/10 01:10:11;;;;;;;;;;;13.10;99.90;;;;;;5136766;27;19920;-74
2023/10/10 01:12:39;;;;;;;;;;;13.10;99.90;;;;;;5134600;27;19926;-74
2023/10/10 01:15:12;;;;;;;;;;;13.00;99.90;;;;;;5133752;27;19973;-73
2023/10/10 01:17:40;;;;;;;;;;;13.00;99.90;;;;;;5135023;27;19930;-74
2023/10/10 01:20:17;;;;;;;;;;;13.00;99.90;;;;;;5134176;27;19920;-73
2023/10/10 01:22:47;;;;;;;;;;;13.00;99.90;;;;;;5131849;27;19920;-73
2023/10/10 01:25:41;;;;;;;;;;;13.00;99.90;;;;;;5131027;27;20217;-74
2023/10/10 01:28:13;;;;;;;;;;;13.00;99.90;;;;;;5134560;27;19924;-73
2023/10/10 01:30:57;;;;;;;;;;;13.00;99.90;;;;;;5133189;27;19955;-73
2023/10/10 01:33:36;;;;;;;;;;;13.00;99.90;;;;;;5130329;27;19927;-73
2023/10/10 01:36:03;;;;;;;;;;;13.00;99.90;;;;;;5132244;27;19920;-75
2023/10/10 01:38:55;;;;;;;;;;;13.00;99.90;;;;;;5134476;27;19957;-73
2023/10/10 01:41:23;;;;;;;;;;;13.00;99.90;;;;;;5130050;27;19920;-75
2023/10/10 01:43:53;;;;;;;;;;;13.00;99.90;;;;;;5132794;27;19942;-73
2023/10/10 01:46:27;;;;;;;;;;;13.00;99.90;;;;;;5134931;27;20205;-73
2023/10/10 01:48:54;;;;;;;;;;;13.00;99.90;;;;;;5129976;27;19920;-74
2023/10/10 01:51:21;;;;;;;;;;;13.00;99.90;;;;;;5135735;27;19954;-73
2023/10/10 01:53:49;;;;;;;;;;;13.00;99.90;;;;;;5131590;27;20233;-73
2023/10/10 01:56:16;;;;;;;;;;;13.00;99.90;;;;;;5129373;27;19920;-73
2023/10/10 01:58:43;;;;;;;;;;;13.00;99.90;;;;;;5135046;27;20209;-74
2023/10/10 02:01:14;;;;;;;;;;;12.90;99.90;;;;;;5132133;27;19969;-73
2023/10/10 02:03:42;;;;;;;;;;;12.90;99.90;;;;;;5135813;27;20436;-73
2023/10/10 02:06:13;;;;;;;;;;;12.80;99.90;;;;;;5132538;27;20326;-73
2023/10/10 02:08:40;;;;;;;;;;;12.80;99.90;;;;;;5131285;27;20007;-74
2023/10/10 02:11:12;;;;;;;;;;;12.80;99.90;;;;;;5132050;27;19920;-73
2023/10/10 02:13:39;;;;;;;;;;;12.70;99.90;;;;;;5134075;27;19961;-74
2023/10/10 02:16:06;;;;;;;;;;;12.80;99.90;;;;;;5132809;27;19926;-73
2023/10/10 02:18:39;;;;;;;;;;;12.70;99.90;;;;;;5133082;27;19920;-74
2023/10/10 02:21:09;;;;;;;;;;;12.60;99.90;;;;;;5133024;27;19986;-74
2023/10/10 02:23:36;;;;;;;;;;;12.70;99.90;;;;;;5131773;27;19926;-74
2023/10/10 02:26:07;;;;;;;;;;;12.60;99.90;;;;;;5134603;27;19919;-74
2023/10/10 02:28:47;;;;;;;;;;;12.60;99.90;;;;;;5132992;27;19923;-74
2023/10/10 02:31:16;;;;;;;;;;;12.50;99.90;;;;;;5134927;27;19959;-74
2023/10/10 02:33:48;;;;;;;;;;;12.50;99.90;;;;;;5131672;27;20205;-74
2023/10/10 02:36:16;;;;;;;;;;;12.40;99.90;;;;;;5127496;27;19954;-74
2023/10/10 02:39:12;;;;;;;;;;;12.40;99.90;;;;;;5130907;27;20233;-74
2023/10/10 02:41:38;;;;;;;;;;;12.40;99.90;;;;;;5126553;27;19945;-73
2023/10/10 02:44:09;;;;;;;;;;;12.30;99.90;;;;;;5132934;27;20012;-73
2023/10/10 02:46:37;;;;;;;;;;;12.30;99.90;;;;;;5127138;27;19982;-73
2023/10/10 02:49:12;;;;;;;;;;;12.30;99.90;;;;;;5131424;27;19986;-73
2023/10/10 02:51:40;;;;;;;;;;;12.30;99.90;;;;;;5135045;27;19928;-73
2023/10/10 02:54:28;;;;;;;;;;;12.30;99.90;;;;;;5131493;27;19919;-73
2023/10/10 02:56:56;;;;;;;;;;;12.30;99.90;;;;;;5132410;27;19920;-74
2023/10/10 02:59:24;;;;;;;;;;;12.30;99.90;;;;;;5126427;27;20094;-73
2023/10/10 03:01:56;;;;;;;;;;;12.30;99.90;;;;;;5115945;27;19961;-73
2023/10/10 03:04:41;;;;;;;;;;;12.20;99.90;;;;;;5126509;27;19920;-73
2023/10/10 03:07:08;;;;;;;;;;;12.20;99.90;;;;;;5126310;27;19920;-73
2023/10/10 03:10:05;;;;;;;;;;;12.20;99.90;;;;;;5131766;27;19947;-73
2023/10/10 03:12:24;;;;;;;;;;;12.20;99.90;;;;;;5133608;27;19972;-73
2023/10/10 03:14:53;;;;;;;;;;;12.20;99.90;;;;;;5133708;28;20201;-74
2023/10/10 03:17:42;;;;;;;;;;;12.10;99.90;;;;;;5125004;28;19919;-73
2023/10/10 03:20:13;;;;;;;;;;;12.10;99.90;;;;;;5129485;28;19924;-73
2023/10/10 03:23:07;;;;;;;;;;;12.10;99.90;;;;;;5128212;28;20236;-73
2023/10/10 03:25:48;;;;;;;;;;;12.10;99.90;;;;;;5125173;28;19920;-73
2023/10/10 03:28:21;;;;;;;;;;;12.00;99.90;;;;;;5131038;28;19922;-73
2023/10/10 03:30:52;;;;;;;;;;;12.00;99.90;;;;;;5133209;28;19927;-73
2023/10/10 03:33:29;;;;;;;;;;;12.00;99.90;;;;;;5127916;28;19924;-73
2023/10/10 03:36:13;;;;;;;;;;;11.90;99.90;;;;;;5132341;28;20224;-74
2023/10/10 05:23:29;;;;;;;;;;;11.90;99.90;;;;;;5099334;28;19916;-73
2023/10/10 05:24:02;;;;;;;;;;;11.00;99.90;;;;;;5052255;28;19924;-76
2023/10/10 05:30:23;;;;;;;;;;;11.00;99.90;;;;;;5139129;27;19925;-76
2023/10/10 05:33:00;;;;;;;;;;;11.00;99.90;;;;;;5133328;27;20133;-70
2023/10/10 05:35:27;;;;;;;;;;;11.00;99.90;;;;;;5125991;27;19983;-73
2023/10/10 05:37:54;;;;;;;;;;;11.00;99.90;;;;;;5137441;27;19920;-73
2023/10/10 05:40:21;;;;;;;;;;;11.00;99.90;;;;;;5140307;27;19947;-72
2023/10/10 05:42:49;;;;;;;;;;;11.00;99.90;;;;;;5136213;27;20230;-71
2023/10/10 05:45:15;;;;;;;;;;;10.90;99.90;;;;;;5129650;27;19919;-71
2023/10/10 05:47:42;;;;;;;;;;;10.80;99.90;;;;;;5137177;27;19919;-74
2023/10/10 05:50:10;;;;;;;;;;;10.80;99.90;;;;;;5139382;27;20152;-72
2023/10/10 05:52:38;;;;;;;;;;;10.90;99.90;;;;;;5139307;27;19926;-72
2023/10/10 05:58:26;;;;;;;;;;;10.90;99.90;;;;;;5070818;27;19951;-74
2023/10/10 06:01:15;;;;;;;;;;;10.90;99.90;;;;;;5126431;27;19919;-75
2023/10/10 06:03:42;;;;;;;;;;;10.90;99.90;;;;;;5130420;27;19919;-72
2023/10/10 06:06:12;;;;;;;;;;;10.90;99.90;;;;;;5132389;27;20170;-72
2023/10/10 06:08:41;;;;;;;;;;;10.90;99.90;;;;;;5137564;27;19926;-72
2023/10/10 06:11:36;;;;;;;;;;;;;;;;;;;;;
2023/10/10 06:20:31;;;;;;;;;;;11.00;99.90;;;;;;5127505;27;19969;-74
2023/10/10 06:22:59;;;;;;;;;;;11.00;99.90;;;;;;5127290;27;19919;-71
2023/10/10 06:25:29;;;;;;;;;;;11.00;99.90;;;;;;5131379;27;19982;-73
2023/10/10 06:28:05;;;;;;;;;;;11.00;99.90;;;;;;5139158;27;19920;-75
2023/10/10 06:30:36;;;;;;;;;;;11.00;99.90;;;;;;5138352;27;19969;-73
2023/10/10 06:36:18;;;;;;;;;;;11.00;99.90;;;;;;5098391;27;19930;-71
2023/10/10 06:38:59;;;;;;;;;;;11.00;99.90;;;;;;5124206;28;20094;-71
2023/10/10 06:41:28;;;;;;;;;;;11.10;99.90;;;;;;5129704;27;19919;-72
2023/10/10 06:43:57;;;;;;;;;;;11.10;99.90;;;;;;5135245;27;20232;-72
2023/10/10 06:46:24;;;;;;;;;;;11.10;99.90;;;;;;5137577;27;19920;-71
2023/10/10 06:48:50;;;;;;;;;;;11.20;99.90;;;;;;5127717;27;20125;-73
2023/10/10 06:51:21;;;;;;;;;;;11.20;99.90;;;;;;5138069;27;20236;-71
2023/10/10 06:53:54;;;;;;;;;;;11.30;99.90;;;;;;5134691;27;19920;-72
2023/10/10 06:56:43;;;;;;;;;;;11.30;99.90;;;;;;5128692;27;19927;-71
2023/10/10 06:59:09;;;;;;;;;;;11.30;99.90;;;;;;5134977;27;19920;-71
2023/10/10 07:01:35;;;;;;;;;;;11.40;99.90;;;;;;5132767;27;19970;-72
2023/10/10 07:04:04;;;;;;;;;;;11.40;99.90;;;;;;5132422;27;20375;-72
2023/10/10 07:09:36;;;;;;;;;;;11.40;99.90;;;;;;5135636;27;20205;-71
2023/10/10 07:12:09;;;;;;;;;;;11.50;99.90;;;;;;5136252;27;19920;-72
2023/10/10 07:14:40;;;;;;;;;;;11.50;99.90;;;;;;5136044;28;19998;-71
2023/10/10 07:17:11;;;;;;;;;;;11.60;99.90;;;;;;5136418;28;19919;-71
2023/10/10 07:19:55;;;;;;;;;;;11.60;99.90;;;;;;5136038;28;19954;-71
2023/10/10 07:22:21;;;;;;;;;;;11.70;99.90;;;;;;5125933;27;19919;-72
2023/10/10 07:24:55;;;;;;;;;;;11.80;99.90;;;;;;5138321;27;20094;-71
2023/10/10 07:27:29;;;;;;;;;;;11.90;99.90;;;;;;5128417;28;20121;-72
2023/10/10 07:30:08;;;;;;;;;;;11.90;99.90;;;;;;5136596;27;19919;-72
2023/10/10 07:32:38;;;;;;;;;;;11.90;99.90;;;;;;5140554;27;19916;-71
2023/10/10 07:35:06;;;;;;;;;;;12.00;99.90;;;;;;5140117;27;19982;-72
2023/10/10 07:37:32;;;;;;;;;;;12.10;99.90;;;;;;5134864;27;19955;-72
2023/10/10 07:40:18;;;;;;;;;;;12.20;99.90;;;;;;5136905;27;19923;-72
2023/10/10 07:42:49;;;;;;;;;;;12.30;99.90;;;;;;5137977;27;19920;-72
2023/10/10 07:45:18;;;;;;;;;;;12.40;99.90;;;;;;5129290;27;20209;-72
2023/10/10 07:50:34;;;;;;;;;;;12.50;99.90;;;;;;5131769;27;19916;-72
2023/10/10 07:53:03;;;;;;;;;;;12.60;99.90;;;;;;5136654;27;19956;-71
2023/10/10 07:55:52;;;;;;;;;;;12.80;99.90;;;;;;5133237;27;20673;-71
2023/10/10 07:58:20;;;;;;;;;;;12.80;99.90;;;;;;5129809;27;19986;-72
2023/10/10 08:00:46;;;;;;;;;;;12.80;99.90;;;;;;5137554;27;19919;-74
2023/10/10 08:03:19;;;;;;;;;;;13.00;99.90;;;;;;5130763;27;20251;-75
2023/10/10 08:05:47;;;;;;;;;;;13.10;99.90;;;;;;5138746;27;20189;-74
2023/10/10 08:08:15;;;;;;;;;;;13.30;99.90;;;;;;5134273;27;19920;-74
2023/10/10 08:10:46;;;;;;;;;;;13.50;99.90;;;;;;5136768;27;19958;-75
2023/10/10 08:13:14;;;;;;;;;;;13.60;99.90;;;;;;5134952;27;19958;-75
2023/10/10 08:15:49;;;;;;;;;;;13.60;99.90;;;;;;5138580;27;20233;-76
2023/10/10 08:18:29;;;;;;;;;;;13.80;99.90;;;;;;5129190;27;19954;-76
2023/10/10 08:21:11;;;;;;;;;;;13.90;99.90;;;;;;5131355;27;20209;-74
2023/10/10 08:23:42;;;;;;;;;;;14.10;99.90;;;;;;5139272;27;19923;-71
2023/10/10 08:26:12;;;;;;;;;;;14.20;99.90;;;;;;5136327;27;19920;-74
2023/10/10 08:28:38;;;;;;;;;;;14.30;99.90;;;;;;5135483;27;19919;-74
2023/10/10 08:31:05;;;;;;;;;;;14.40;99.90;;;;;;5139339;27;19919;-74
2023/10/10 08:33:32;;;;;;;;;;;14.50;99.90;;;;;;5135577;27;19927;-73
2023/10/10 08:35:59;;;;;;;;;;;14.70;99.90;;;;;;5133560;27;19982;-74
2023/10/10 08:38:26;;;;;;;;;;;14.90;99.90;;;;;;5141062;27;19951;-75
2023/10/10 08:40:57;;;;;;;;;;;15.00;99.90;;;;;;5137342;27;20113;-74
2023/10/10 08:43:31;;;;;;;;;;;15.10;99.90;;;;;;5134267;27;19926;-73
2023/10/10 08:45:58;;;;;;;;;;;15.30;99.90;;;;;;5122205;27;20232;-73
2023/10/10 08:48:27;;;;;;;;;;;15.40;99.90;;;;;;5133682;27;19990;-74
2023/10/10 08:50:54;;;;;;;;;;;15.50;99.90;;;;;;5134105;27;19979;-73
2023/10/10 08:53:22;;;;;;;;;;;15.60;99.90;;;;;;5131880;27;20206;-73
2023/10/10 08:55:56;;;;;;;;;;;15.70;99.90;;;;;;5134307;27;19924;-72
2023/10/10 08:58:24;;;;;;;;;;;15.80;99.90;;;;;;5122915;28;20164;-73
2023/10/10 09:00:52;;;;;;;;;;;15.90;99.90;;;;;;5128778;27;19933;-74
2023/10/10 09:03:19;;;;;;;;;;;16.10;99.90;;;;;;5124006;28;19962;-73
2023/10/10 09:05:47;;;;;;;;;;;16.20;99.90;;;;;;5125138;28;20244;-72
2023/10/10 09:08:16;;;;;;;;;;;16.30;99.90;;;;;;5134888;27;19926;-74
2023/10/10 09:10:46;;;;;;;;;;;16.40;99.90;;;;;;5129904;27;19942;-74
2023/10/10 09:13:13;;;;;;;;;;;16.40;99.90;;;;;;5133699;27;20180;-74
2023/10/10 09:15:52;;;;;;;;;;;16.50;99.90;;;;;;5135122;27;20147;-74
2023/10/10 09:18:22;;;;;;;;;;;16.70;99.90;;;;;;5129127;27;20144;-73
2023/10/10 09:20:49;;;;;;;;;;;16.80;99.90;;;;;;5132691;27;19919;-73
2023/10/10 09:23:21;;;;;;;;;;;16.90;99.90;;;;;;5125321;27;19951;-73
2023/10/10 09:25:55;;;;;;;;;;;17.00;99.90;;;;;;5135830;27;19919;-73
2023/10/10 09:28:22;;;;;;;;;;;17.20;99.90;;;;;;5138609;27;19934;-73
2023/10/10 09:30:58;;;;;;;;;;;17.30;99.90;;;;;;5134535;27;20109;-73
2023/10/10 09:33:29;;;;;;;;;;;17.50;99.90;;;;;;5131138;27;19927;-73
2023/10/10 09:36:08;;;;;;;;;;;17.50;99.90;;;;;;5128935;27;19966;-73
2023/10/10 09:38:36;;;;;;;;;;;17.60;99.90;;;;;;5133130;27;20214;-74
2023/10/10 09:41:14;;;;;;;;;;;17.70;99.90;;;;;;5132640;27;19919;-73
2023/10/10 09:43:49;;;;;;;;;;;17.90;99.90;;;;;;5129275;27;19920;-74
2023/10/10 09:46:23;;;;;;;;;;;18.00;99.90;;;;;;5118513;28;20147;-73
2023/10/10 09:54:25;;;;;;;;;;;18.40;99.90;;;;;;5131492;27;20200;-73
2023/10/10 09:57:20;;;;;;;;;;;18.50;99.90;;;;;;5123692;27;19928;-75
2023/10/10 09:59:56;;;;;;;;;;;18.70;99.90;;;;;;5129660;27;19981;-74
2023/10/10 10:02:40;;;;;;;;;;;18.80;99.90;;;;;;5126682;27;19965;-74
2023/10/10 10:05:13;;;;;;;;;;;18.90;99.90;;;;;;5128495;27;19919;-74
2023/10/10 10:07:56;;;;;;;;;;;19.00;99.90;;;;;;5133799;27;19982;-73
2023/10/10 10:10:35;;;;;;;;;;;19.20;99.90;;;;;;5126573;27;19923;-73
2023/10/10 10:13:13;;;;;;;;;;;19.30;99.90;;;;;;5123689;28;19923;-74
2023/10/10 10:15:49;;;;;;;;;;;19.40;99.90;;;;;;5124768;28;20228;-75
2023/10/10 10:18:26;;;;;;;;;;;19.70;99.90;;;;;;5123480;27;19920;-75
2023/10/10 10:21:13;;;;;;;;;;;19.80;99.90;;;;;;5135269;27;19926;-75
2023/10/10 10:23:56;;;;;;;;;;;19.90;99.90;;;;;;5125134;28;20215;-75
2023/10/10 10:26:45;;;;;;;;;;;20.10;99.90;;;;;;5129069;27;19924;-75
2023/10/10 10:29:16;;;;;;;;;;;20.20;99.90;;;;;;5133151;27;20232;-75
2023/10/10 10:31:49;;;;;;;;;;;20.40;99.90;;;;;;5131881;27;20109;-74
2023/10/10 10:37:21;;;;;;;;;;;20.70;99.90;;;;;;5106840;27;19915;-75
2023/10/10 10:42:46;;;;;;;;;;;21.00;99.90;;;;;;5128935;27;20240;-74
2023/10/10 10:45:34;;;;;;;;;;;21.10;99.90;;;;;;5131837;27;19919;-73
2023/10/10 10:48:06;;;;;;;;;;;21.30;99.90;;;;;;5110791;28;19920;-73
2023/10/10 10:50:56;;;;;;;;;;;21.40;99.90;;;;;;5125238;28;19942;-74
2023/10/10 10:54:00;;;;;;;;;;;;;;;;;;;;;
2023/10/10 10:56:40;;;;;;;;;;;21.70;99.90;;;;;;5115700;28;19970;-75
2023/10/10 10:59:12;;;;;;;;;;;21.90;99.90;;;;;;5126758;27;20282;-74
2023/10/10 11:01:42;;;;;;;;;;;22.00;99.90;;;;;;5124414;28;19920;-74
2023/10/10 11:04:14;;;;;;;;;;;22.20;99.90;;;;;;5129671;27;20051;-74
2023/10/10 11:06:49;;;;;;;;;;;22.30;99.90;;;;;;5129943;27;19958;-74
2023/10/10 11:09:28;;;;;;;;;;;22.40;99.90;;;;;;5123562;28;19991;-74
2023/10/10 11:12:01;;;;;;;;;;;22.50;99.90;;;;;;5124557;28;19920;-74
2023/10/10 11:14:30;;;;;;;;;;;22.60;99.90;;;;;;5127354;27;19924;-74
2023/10/10 11:16:57;;;;;;;;;;;22.70;99.90;;;;;;5126385;28;19961;-74
2023/10/10 11:19:38;;;;;;;;;;;22.90;99.90;;;;;;5132638;27;19955;-73
2023/10/10 11:22:12;;;;;;;;;;;22.90;99.90;;;;;;5130540;28;19927;-74
2023/10/10 11:24:46;;;;;;;;;;;23.00;99.90;;;;;;5125182;28;19920;-74
2023/10/10 11:27:21;;;;;;;;;;;23.10;99.90;;;;;;5132992;28;20183;-73
2023/10/10 11:30:08;;;;;;;;;;;23.20;99.90;;;;;;5130385;28;19959;-74
2023/10/10 11:32:45;;;;;;;;;;;23.20;99.90;;;;;;5127292;28;20210;-73
2023/10/10 11:35:36;;;;;;;;;;;23.20;99.90;;;;;;5128513;28;19926;-74
2023/10/10 11:38:09;;;;;;;;;;;23.30;99.90;;;;;;5124392;28;20255;-73
2023/10/10 11:40:52;;;;;;;;;;;23.40;99.90;;;;;;5126344;28;19923;-76
2023/10/10 11:49:55;;;;;;;;;;;23.70;99.90;;;;;;5073578;28;19921;-75
2023/10/10 11:55:14;;;;;;;;;;;23.90;99.90;;;;;;5094928;28;19920;-73
2023/10/10 11:57:42;;;;;;;;;;;24.10;99.90;;;;;;5129644;28;19934;-73
2023/10/10 12:00:11;;;;;;;;;;;24.20;99.90;;;;;;5130139;28;19962;-73
2023/10/10 12:02:41;;;;;;;;;;;24.30;99.90;;;;;;5130063;28;20258;-74
2023/10/10 12:05:35;;;;;;;;;;;24.40;99.90;;;;;;5129678;28;20138;-74
2023/10/10 12:08:05;;;;;;;;;;;24.50;99.90;;;;;;5132465;27;19920;-73
2023/10/10 12:10:42;;;;;;;;;;;24.40;99.90;;;;;;5132582;27;19942;-74
2023/10/10 12:13:12;;;;;;;;;;;24.50;99.90;;;;;;5136103;27;20168;-74
2023/10/10 12:15:40;;;;;;;;;;;24.40;99.90;;;;;;5133498;27;19919;-73
2023/10/10 12:18:09;;;;;;;;;;;24.40;99.90;;;;;;5132427;27;19927;-73
2023/10/10 12:20:36;;;;;;;;;;;24.40;99.90;;;;;;5126825;28;20121;-75
2023/10/10 12:23:03;;;;;;;;;;;24.50;99.90;;;;;;5132491;27;20094;-73
2023/10/10 12:25:29;;;;;;;;;;;24.40;99.90;;;;;;5127999;27;19920;-74
2023/10/10 12:28:00;;;;;;;;;;;24.50;99.90;;;;;;5132699;27;20284;-73
2023/10/10 12:30:28;;;;;;;;;;;24.50;99.90;;;;;;5127857;27;19951;-74
2023/10/10 12:33:00;;;;;;;;;;;24.50;99.90;;;;;;5128199;27;19927;-74
2023/10/10 12:35:42;;;;;;;;;;;24.40;99.90;;;;;;5132608;27;19919;-77
2023/10/10 12:38:09;;;;;;;;;;;24.40;99.90;;;;;;5134716;27;19955;-73
2023/10/10 12:40:36;;;;;;;;;;;24.40;99.90;;;;;;5134728;27;19927;-73
2023/10/10 12:43:03;;;;;;;;;;;24.40;99.90;;;;;;5132574;27;20301;-73
2023/10/10 12:45:55;;;;;;;;;;;24.40;99.90;;;;;;5132256;27;19923;-74
2023/10/10 12:48:21;;;;;;;;;;;24.40;99.90;;;;;;5131928;27;19927;-73
2023/10/10 12:50:50;;;;;;;;;;;24.50;99.90;;;;;;5133005;27;20015;-73
2023/10/10 12:53:19;;;;;;;;;;;24.40;99.90;;;;;;5132404;27;19976;-73
2023/10/10 12:55:49;;;;;;;;;;;24.30;99.90;;;;;;5130225;27;19920;-72
2023/10/10 12:58:19;;;;;;;;;;;24.40;99.90;;;;;;5128501;27;19988;-72
2023/10/10 13:00:57;;;;;;;;;;;24.40;99.90;;;;;;5131939;27;19927;-72
2023/10/10 13:03:27;;;;;;;;;;;24.50;99.90;;;;;;5131733;27;19979;-75
2023/10/10 13:05:58;;;;;;;;;;;24.50;99.90;;;;;;5131730;27;19920;-72
2023/10/10 13:08:38;;;;;;;;;;;24.60;99.90;;;;;;5135654;27;19962;-75
2023/10/10 13:11:12;;;;;;;;;;;24.70;99.90;;;;;;5125648;27;19920;-73
2023/10/10 13:13:51;;;;;;;;;;;24.80;99.90;;;;;;5132282;27;19920;-75
2023/10/10 13:16:27;;;;;;;;;;;24.70;99.90;;;;;;5125283;27;19955;-74
2023/10/10 13:18:55;;;;;;;;;;;24.90;99.90;;;;;;5131567;27;19951;-73
2023/10/10 13:21:35;;;;;;;;;;;25.00;99.90;;;;;;5131260;27;19985;-75
2023/10/10 13:27:07;;;;;;;;;;;25.10;99.90;;;;;;5065507;28;19980;-73
2023/10/10 13:29:33;;;;;;;;;;;25.20;99.90;;;;;;5131688;27;19919;-73
2023/10/10 13:32:03;;;;;;;;;;;25.30;99.90;;;;;;5131582;27;20236;-73
2023/10/10 13:34:30;;;;;;;;;;;25.30;99.90;;;;;;5132006;27;19927;-75
2023/10/10 13:36:56;;;;;;;;;;;25.10;99.90;;;;;;5132704;27;19920;-74
2023/10/10 13:39:33;;;;;;;;;;;25.10;99.90;;;;;;5135360;27;19919;-73
2023/10/10 13:42:00;;;;;;;;;;;25.00;99.90;;;;;;5131949;27;19927;-74
2023/10/10 13:44:27;;;;;;;;;;;24.90;99.90;;;;;;5130749;27;19920;-73
2023/10/10 13:46:54;;;;;;;;;;;24.90;99.90;;;;;;5123624;27;19955;-73
2023/10/10 13:49:22;;;;;;;;;;;25.00;99.90;;;;;;5131667;27;19927;-72
2023/10/10 13:51:52;;;;;;;;;;;25.10;99.90;;;;;;5131884;27;19947;-71
2023/10/10 13:54:19;;;;;;;;;;;25.00;99.90;;;;;;5125805;27;20213;-72
2023/10/10 13:56:46;;;;;;;;;;;25.00;99.90;;;;;;5124597;27;19920;-75
2023/10/10 13:59:14;;;;;;;;;;;25.00;99.90;;;;;;5126989;27;20263;-73
2023/10/10 14:01:41;;;;;;;;;;;25.00;99.90;;;;;;5130363;27;19961;-74
2023/10/10 14:04:15;;;;;;;;;;;25.00;99.90;;;;;;5130905;27;19920;-73
2023/10/10 14:06:47;;;;;;;;;;;25.00;99.90;;;;;;5131745;27;19958;-73
2023/10/10 14:09:21;;;;;;;;;;;24.90;99.90;;;;;;5126177;27;19924;-76
2023/10/10 14:11:49;;;;;;;;;;;24.80;99.90;;;;;;5131529;27;19919;-73
2023/10/10 14:14:16;;;;;;;;;;;24.80;99.90;;;;;;5125575;27;19951;-76
2023/10/10 14:16:43;;;;;;;;;;;24.60;99.90;;;;;;5135403;27;19954;-73
2023/10/10 14:19:10;;;;;;;;;;;24.60;99.90;;;;;;5138093;27;19951;-73
2023/10/10 14:21:38;;;;;;;;;;;24.60;99.90;;;;;;5137040;27;19990;-74
2023/10/10 14:27:02;;;;;;;;;;;24.60;99.90;;;;;;5117149;27;20225;-74
2023/10/10 14:29:40;;;;;;;;;;;24.70;99.90;;;;;;5133561;27;20222;-75
2023/10/10 14:32:11;;;;;;;;;;;24.70;99.90;;;;;;5132540;27;19926;-75
2023/10/10 14:34:39;;;;;;;;;;;24.80;99.90;;;;;;5132832;27;19919;-74
2023/10/10 14:37:06;;;;;;;;;;;24.80;99.90;;;;;;5133027;27;19919;-75
2023/10/10 14:39:36;;;;;;;;;;;24.80;99.90;;;;;;5132608;27;20024;-72
2023/10/10 14:42:04;;;;;;;;;;;24.90;99.90;;;;;;5132993;27;20270;-71
2023/10/10 14:44:40;;;;;;;;;;;24.90;99.90;;;;;;5131971;27;19919;-70
2023/10/10 14:47:09;;;;;;;;;;;24.80;99.90;;;;;;5133488;27;19969;-71
2023/10/10 14:50:00;;;;;;;;;;;24.70;99.90;;;;;;5137509;27;19919;-73
2023/10/10 14:52:35;;;;;;;;;;;24.60;99.90;;;;;;5108212;27;20236;-70
2023/10/10 14:55:05;;;;;;;;;;;24.70;99.90;;;;;;5133821;27;20213;-70
2023/10/10 14:57:34;;;;;;;;;;;24.60;99.90;;;;;;5124202;28;19920;-70
2023/10/10 15:00:00;;;;;;;;;;;24.70;99.90;;;;;;5124213;28;19990;-70
2023/10/10 15:02:27;;;;;;;;;;;24.60;99.90;;;;;;5124487;28;19962;-70
2023/10/10 15:04:54;;;;;;;;;;;24.50;99.90;;;;;;5124114;28;19919;-70
2023/10/10 15:07:21;;;;;;;;;;;24.50;99.90;;;;;;5138009;27;19919;-70
2023/10/10 15:09:47;;;;;;;;;;;24.60;99.90;;;;;;5135023;27;20188;-69
2023/10/10 15:12:14;;;;;;;;;;;24.60;99.90;;;;;;5138101;27;19982;-71
2023/10/10 15:14:42;;;;;;;;;;;24.60;99.90;;;;;;5135353;27;20165;-70
2023/10/10 15:17:09;;;;;;;;;;;24.60;99.90;;;;;;5137225;27;19924;-71
2023/10/10 15:19:36;;;;;;;;;;;24.60;99.90;;;;;;5136632;27;19986;-69
2023/10/10 15:22:03;;;;;;;;;;;24.60;99.90;;;;;;5136235;28;19965;-70
2023/10/10 15:24:32;;;;;;;;;;;24.60;99.90;;;;;;5136449;28;19932;-71
2023/10/10 15:26:59;;;;;;;;;;;24.50;99.90;;;;;;5131080;28;19926;-70
2023/10/10 15:29:27;;;;;;;;;;;24.40;99.90;;;;;;5131335;28;19988;-74
2023/10/10 15:31:56;;;;;;;;;;;24.30;99.90;;;;;;5134755;28;19926;-70
2023/10/10 15:34:23;;;;;;;;;;;24.20;99.90;;;;;;5130196;28;20224;-71
2023/10/10 15:36:50;;;;;;;;;;;24.00;99.90;;;;;;5129933;28;19988;-70
2023/10/10 15:39:16;;;;;;;;;;;23.80;99.90;;;;;;5125886;28;19987;-71
2023/10/10 15:41:44;;;;;;;;;;;23.80;99.90;;;;;;5124607;28;19919;-71
2023/10/10 15:44:12;;;;;;;;;;;23.60;99.90;;;;;;5135206;27;20129;-69
2023/10/10 15:46:40;;;;;;;;;;;23.50;99.90;;;;;;5139321;27;19985;-72
2023/10/10 15:49:10;;;;;;;;;;;23.40;99.90;;;;;;5138321;27;19920;-69
2023/10/10 15:51:38;;;;;;;;;;;23.40;99.90;;;;;;5140361;27;20172;-70
2023/10/10 15:54:07;;;;;;;;;;;23.20;99.90;;;;;;5134230;27;19976;-71
2023/10/10 15:56:34;;;;;;;;;;;23.10;99.90;;;;;;5132976;27;19951;-70
2023/10/10 15:59:01;;;;;;;;;;;23.00;99.90;;;;;;5132738;27;19986;-70
2023/10/10 16:01:28;;;;;;;;;;;22.90;99.90;;;;;;5134243;27;19991;-70
2023/10/10 16:03:59;;;;;;;;;;;22.80;99.90;;;;;;5138604;27;20112;-71
2023/10/10 16:06:27;;;;;;;;;;;22.70;99.90;;;;;;5141052;27;19924;-71
2023/10/10 16:08:57;;;;;;;;;;;22.60;99.90;;;;;;5129219;27;20248;-71
2023/10/10 16:11:31;;;;;;;;;;;22.50;99.90;;;;;;5141328;27;19923;-72
2023/10/10 16:13:58;;;;;;;;;;;22.40;99.90;;;;;;5135837;27;19919;-72
2023/10/10 16:16:24;;;;;;;;;;;22.20;99.90;;;;;;5135177;27;19987;-73
2023/10/10 16:18:51;;;;;;;;;;;22.10;99.90;;;;;;5136802;27;20280;-74
2023/10/10 16:21:18;;;;;;;;;;;22.00;99.90;;;;;;5140478;27;19951;-73
2023/10/10 16:23:46;;;;;;;;;;;21.90;99.90;;;;;;5138178;27;20002;-74
2023/10/10 16:26:14;;;;;;;;;;;21.70;99.90;;;;;;5139654;27;19985;-73
2023/10/10 16:28:41;;;;;;;;;;;21.60;99.90;;;;;;5138472;27;19947;-73
2023/10/10 16:31:10;;;;;;;;;;;21.60;99.90;;;;;;5139471;27;19948;-74
2023/10/10 16:33:43;;;;;;;;;;;21.50;99.90;;;;;;5137975;27;19926;-75
2023/10/10 16:36:17;;;;;;;;;;;21.30;99.90;;;;;;5138785;27;19951;-77
2023/10/10 16:38:44;;;;;;;;;;;21.20;99.90;;;;;;5137788;27;19951;-74
2023/10/10 16:41:12;;;;;;;;;;;21.10;99.90;;;;;;5133852;27;19986;-73
2023/10/10 16:43:38;;;;;;;;;;;21.00;99.90;;;;;;5137442;27;20048;-73
2023/10/10 16:46:06;;;;;;;;;;;20.80;99.90;;;;;;5138612;27;19987;-73
2023/10/10 16:48:45;;;;;;;;;;;20.60;99.90;;;;;;5138824;27;19919;-75
2023/10/10 16:51:26;;;;;;;;;;;20.50;99.90;;;;;;5140653;27;19919;-76
2023/10/10 16:53:55;;;;;;;;;;;20.40;99.90;;;;;;5136800;27;19926;-76
2023/10/10 16:56:23;;;;;;;;;;;20.10;99.90;;;;;;5131484;27;20083;-74
2023/10/10 16:58:49;;;;;;;;;;;20.00;99.90;;;;;;5136274;27;19982;-74
2023/10/10 17:01:16;;;;;;;;;;;19.90;99.90;;;;;;5131270;27;20206;-71
2023/10/10 17:03:44;;;;;;;;;;;19.80;99.90;;;;;;5131099;27;19919;-73
2023/10/10 17:06:11;;;;;;;;;;;19.70;99.90;;;;;;5138824;27;19927;-74
2023/10/10 17:08:38;;;;;;;;;;;19.60;99.90;;;;;;5131146;27;19920;-73
2023/10/10 17:11:08;;;;;;;;;;;19.50;99.90;;;;;;5125587;28;20268;-73
2023/10/10 17:13:38;;;;;;;;;;;19.40;99.90;;;;;;5127006;27;19919;-72
2023/10/10 17:16:11;;;;;;;;;;;19.30;99.90;;;;;;5133316;27;20020;-73